Terminal Aerodrome Forecast
Issued by NWS

Home | Current Version | Previous Version | Text Only | Print | Product List | Glossary Off
Versions: 1 2 3 4 5 6 7 8 9 10 11 12 13 14 15 16 17 18 19 20 21 22 23 24 25 26 27 28 29 30 31

000
FTUS43 KLOT 302158 AAB
TAFMDW
TAF AMD
KMDW 302158Z 3022/0118 01014KT P6SM SCT030 BKN040
     FM010000 01009KT P6SM FEW250
     FM010700 33004KT P6SM SCT250
     FM011500 03007KT P6SM SCT050 SCT250=

USA.gov is the U.S. government's official web portal to all federal, state and local government web resources and services.